Akademik Fedorov — UCKZ — position and weather

sailwx.info

Track history (hours):
 
Tides and Currents Weather Stations Pressure Air Temp Water Temp Dewpoint Dewpoint Depression Visibility Wind Speed Wind Dir Waves Ship Positions

Oceanographic research ship Akademik Fedorov (Russia)

Detailed information on ship capabilities available from ARCUS's ALIAS (Arctic Logistics Information and Support) project.

Last reported at 2014-Jul-20 17:27 UTC. Time now 2014-Aug-28 11:25 UTC.
Position N 65°43' E 000°43'.
Warning: this ship's position is 38 days out of date.

Length 141 m; beam 17 m.

Type: Other ship. MMSI: 273412710.

Date/timePositionNaut miles runAvg speedWind from/ knotsBaromVisibWave heightAir tempDewpointWater temp
2014-Jul-20 17:27N 65°43' E 000°43'7 3.4
2014-Jul-20 15:18N 65°44' E 001°01'4 5.6
2014-Jul-20 14:30N 65°45' E 001°11'  
2014-Jul-17 01:27N 58°20' E 005°27'1415.1
2014-Jul-17 00:33N 58°11' E 005°46'1515.2
2014-Jul-16 23:34N 58°02' E 006°08'10312.9
2014-Jul-16 15:33N 57°53' E 009°22'1211.9
2014-Jul-16 14:33N 57°54' E 009°44'1712.3
2014-Jul-16 13:11N 57°57' E 010°15'912.4
2014-Jul-16 12:26N 57°58' E 010°33'1112.2
2014-Jul-16 11:31N 57°56' E 010°54'1212.7
2014-Jul-16 10:33N 57°46' E 011°05'1313.2
2014-Jul-16 09:33N 57°35' E 011°18'1313.1
2014-Jul-16 08:33N 57°23' E 011°29'1313.1
2014-Jul-16 07:33N 57°11' E 011°38'1413.2
2014-Jul-16 06:32N 56°58' E 011°46'1312.9
2014-Jul-16 05:33N 56°46' E 011°53'1313.5
2014-Jul-16 04:33N 56°34' E 011°42'5313.3
2014-Jul-16 00:32N 55°49' E 010°49'7212.1
2014-Jul-15 18:34N 54°37' E 010°49'  
2014-Jul-13 03:33N 54°35' E 010°57'10 9.7
2014-Jul-13 02:33N 54°35' E 011°14'1111.5
2014-Jul-13 01:33N 54°30' E 011°32'10 9.7
2014-Jul-13 00:33N 54°26' E 011°47'9 9.3
2014-Jul-12 23:33N 54°27' E 012°03'9 8.8
2014-Jul-12 22:33N 54°33' E 012°13'10 9.6
2014-Jul-12 21:33N 54°40' E 012°24'10 9.6
2014-Jul-12 20:33N 54°46' E 012°38'9 8.8
2014-Jul-12 19:31N 54°50' E 012°52'9 9.2
2014-Jul-12 18:32N 54°53' E 013°07'11 9.4
2014-Jul-12 17:21N 54°56' E 013°25'7 9.5
2014-Jul-12 16:33N 54°59' E 013°38'37 9.3
2014-Jul-12 12:32N 55°22' E 014°29'1010.6
2014-Jul-12 11:33N 55°29' E 014°43'1110.6
2014-Jul-12 10:33N 55°34' E 014°59'1110.6
2014-Jul-12 09:33N 55°38' E 015°16'4510.6
2014-Jul-12 05:15N 55°50' E 016°34'810.3
2014-Jul-12 04:27N 55°52' E 016°49'  
Track history (hours):
 
Tides and Currents Weather Stations Pressure Air Temp Water Temp Dewpoint Dewpoint Depression Visibility Wind Speed Wind Dir Waves Ship Positions

Oceanographic research ship Akademik Fedorov (Russia)

Detailed information on ship capabilities available from ARCUS's ALIAS (Arctic Logistics Information and Support) project.

Last reported at 2014-Jul-20 17:27 UTC. Time now 2014-Aug-28 11:25 UTC.
Position N 65°43' E 000°43'.
Warning: this ship's position is 38 days out of date.

Length 141 m; beam 17 m.

Type: Other ship. MMSI: 273412710.

Date/timePositionNaut miles runAvg speedWind from/ knotsBaromVisibWave heightAir tempDewpointWater temp
2014-Jul-20 17:27N 65°43' E 000°43'7 3.4
2014-Jul-20 15:18N 65°44' E 001°01'4 5.6
2014-Jul-20 14:30N 65°45' E 001°11'  
2014-Jul-17 01:27N 58°20' E 005°27'1415.1
2014-Jul-17 00:33N 58°11' E 005°46'1515.2
2014-Jul-16 23:34N 58°02' E 006°08'10312.9
2014-Jul-16 15:33N 57°53' E 009°22'1211.9
2014-Jul-16 14:33N 57°54' E 009°44'1712.3
2014-Jul-16 13:11N 57°57' E 010°15'912.4
2014-Jul-16 12:26N 57°58' E 010°33'1112.2
2014-Jul-16 11:31N 57°56' E 010°54'1212.7
2014-Jul-16 10:33N 57°46' E 011°05'1313.2
2014-Jul-16 09:33N 57°35' E 011°18'1313.1
2014-Jul-16 08:33N 57°23' E 011°29'1313.1
2014-Jul-16 07:33N 57°11' E 011°38'1413.2
2014-Jul-16 06:32N 56°58' E 011°46'1312.9
2014-Jul-16 05:33N 56°46' E 011°53'1313.5
2014-Jul-16 04:33N 56°34' E 011°42'5313.3
2014-Jul-16 00:32N 55°49' E 010°49'7212.1
2014-Jul-15 18:34N 54°37' E 010°49'  
2014-Jul-13 03:33N 54°35' E 010°57'10 9.7
2014-Jul-13 02:33N 54°35' E 011°14'1111.5
2014-Jul-13 01:33N 54°30' E 011°32'10 9.7
2014-Jul-13 00:33N 54°26' E 011°47'9 9.3
2014-Jul-12 23:33N 54°27' E 012°03'9 8.8
2014-Jul-12 22:33N 54°33' E 012°13'10 9.6
2014-Jul-12 21:33N 54°40' E 012°24'10 9.6
2014-Jul-12 20:33N 54°46' E 012°38'9 8.8
2014-Jul-12 19:31N 54°50' E 012°52'9 9.2
2014-Jul-12 18:32N 54°53' E 013°07'11 9.4
2014-Jul-12 17:21N 54°56' E 013°25'7 9.5
2014-Jul-12 16:33N 54°59' E 013°38'37 9.3
2014-Jul-12 12:32N 55°22' E 014°29'1010.6
2014-Jul-12 11:33N 55°29' E 014°43'1110.6
2014-Jul-12 10:33N 55°34' E 014°59'1110.6
2014-Jul-12 09:33N 55°38' E 015°16'4510.6
2014-Jul-12 05:15N 55°50' E 016°34'810.3
2014-Jul-12 04:27N 55°52' E 016°49'  

Dump ship's entire track history